sensor_id;sensor_type;location;lat;lon;timestamp;P1;durP1;ratioP1;P2;durP2;ratioP2
69358;SDS011;56520;49.066;8.660;2024-01-27T00:00:53;4.25;;;2.00;;
69358;SDS011;56520;49.066;8.660;2024-01-27T00:03:19;6.70;;;1.63;;
69358;SDS011;56520;49.066;8.660;2024-01-27T00:05:46;4.00;;;1.70;;
69358;SDS011;56520;49.066;8.660;2024-01-27T00:08:12;3.75;;;1.85;;
69358;SDS011;56520;49.066;8.660;2024-01-27T00:10:37;3.50;;;1.45;;
69358;SDS011;56520;49.066;8.660;2024-01-27T00:13:03;6.80;;;1.60;;
69358;SDS011;56520;49.066;8.660;2024-01-27T00:15:28;3.97;;;1.60;;
69358;SDS011;56520;49.066;8.660;2024-01-27T00:17:54;5.10;;;1.75;;
69358;SDS011;56520;49.066;8.660;2024-01-27T00:20:19;5.90;;;1.77;;
69358;SDS011;56520;49.066;8.660;2024-01-27T00:22:44;4.70;;;1.63;;
69358;SDS011;56520;49.066;8.660;2024-01-27T00:27:35;3.33;;;1.37;;
69358;SDS011;56520;49.066;8.660;2024-01-27T00:30:01;3.92;;;1.77;;
69358;SDS011;56520;49.066;8.660;2024-01-27T00:32:26;5.10;;;2.22;;
69358;SDS011;56520;49.066;8.660;2024-01-27T00:37:17;5.23;;;1.70;;
69358;SDS011;56520;49.066;8.660;2024-01-27T00:42:08;2.80;;;1.13;;
69358;SDS011;56520;49.066;8.660;2024-01-27T00:44:34;2.40;;;1.17;;
69358;SDS011;56520;49.066;8.660;2024-01-27T00:46:59;4.80;;;1.58;;
69358;SDS011;56520;49.066;8.660;2024-01-27T00:49:25;4.70;;;1.25;;
69358;SDS011;56520;49.066;8.660;2024-01-27T00:51:50;3.42;;;1.67;;
69358;SDS011;56520;49.066;8.660;2024-01-27T00:54:16;6.47;;;1.67;;
69358;SDS011;56520;49.066;8.660;2024-01-27T00:56:44;3.55;;;1.45;;
69358;SDS011;56520;49.066;8.660;2024-01-27T00:59:09;2.22;;;1.10;;
69358;SDS011;56520;49.066;8.660;2024-01-27T01:01:35;4.47;;;1.67;;
69358;SDS011;56520;49.066;8.660;2024-01-27T01:06:25;2.63;;;1.13;;
69358;SDS011;56520;49.066;8.660;2024-01-27T01:08:51;3.67;;;1.58;;
69358;SDS011;56520;49.066;8.660;2024-01-27T01:11:16;3.97;;;1.17;;
69358;SDS011;56520;49.066;8.660;2024-01-27T01:13:41;3.70;;;1.50;;
69358;SDS011;56520;49.066;8.660;2024-01-27T01:16:07;4.78;;;1.75;;
69358;SDS011;56520;49.066;8.660;2024-01-27T01:18:33;4.18;;;1.27;;
69358;SDS011;56520;49.066;8.660;2024-01-27T01:20:58;5.32;;;1.88;;
69358;SDS011;56520;49.066;8.660;2024-01-27T01:23:24;4.43;;;1.90;;
69358;SDS011;56520;49.066;8.660;2024-01-27T01:25:49;3.30;;;1.60;;
69358;SDS011;56520;49.066;8.660;2024-01-27T01:28:14;3.53;;;1.13;;
69358;SDS011;56520;49.066;8.660;2024-01-27T01:30:40;4.22;;;1.60;;
69358;SDS011;56520;49.066;8.660;2024-01-27T01:33:05;5.82;;;1.33;;
69358;SDS011;56520;49.066;8.660;2024-01-27T01:35:31;4.30;;;1.92;;
69358;SDS011;56520;49.066;8.660;2024-01-27T01:37:56;4.05;;;1.63;;
69358;SDS011;56520;49.066;8.660;2024-01-27T01:40:21;5.60;;;1.75;;
69358;SDS011;56520;49.066;8.660;2024-01-27T01:42:50;3.00;;;1.02;;
69358;SDS011;56520;49.066;8.660;2024-01-27T01:45:16;1.52;;;0.80;;
69358;SDS011;56520;49.066;8.660;2024-01-27T01:47:42;3.03;;;1.35;;
69358;SDS011;56520;49.066;8.660;2024-01-27T01:50:08;6.05;;;1.45;;
69358;SDS011;56520;49.066;8.660;2024-01-27T01:52:33;5.38;;;1.70;;
69358;SDS011;56520;49.066;8.660;2024-01-27T01:54:59;2.38;;;0.98;;
69358;SDS011;56520;49.066;8.660;2024-01-27T01:57:24;3.17;;;1.35;;
69358;SDS011;56520;49.066;8.660;2024-01-27T01:59:50;3.42;;;1.27;;
69358;SDS011;56520;49.066;8.660;2024-01-27T02:02:15;1.95;;;0.93;;
69358;SDS011;56520;49.066;8.660;2024-01-27T02:04:44;3.05;;;1.30;;
69358;SDS011;56520;49.066;8.660;2024-01-27T02:07:13;1.95;;;0.88;;
69358;SDS011;56520;49.066;8.660;2024-01-27T02:09:39;9.30;;;1.75;;
69358;SDS011;56520;49.066;8.660;2024-01-27T02:12:04;2.25;;;1.00;;
69358;SDS011;56520;49.066;8.660;2024-01-27T02:16:56;3.17;;;1.10;;
69358;SDS011;56520;49.066;8.660;2024-01-27T02:19:22;4.00;;;1.58;;
69358;SDS011;56520;49.066;8.660;2024-01-27T02:21:48;3.42;;;1.35;;
69358;SDS011;56520;49.066;8.660;2024-01-27T02:24:13;3.60;;;1.23;;
69358;SDS011;56520;49.066;8.660;2024-01-27T02:26:38;4.32;;;1.52;;
69358;SDS011;56520;49.066;8.660;2024-01-27T02:29:04;2.38;;;0.93;;
69358;SDS011;56520;49.066;8.660;2024-01-27T02:31:29;6.47;;;2.03;;
69358;SDS011;56520;49.066;8.660;2024-01-27T02:33:55;2.90;;;1.17;;
69358;SDS011;56520;49.066;8.660;2024-01-27T02:36:20;2.42;;;0.82;;
69358;SDS011;56520;49.066;8.660;2024-01-27T02:38:46;1.30;;;0.70;;
69358;SDS011;56520;49.066;8.660;2024-01-27T02:41:11;2.80;;;1.02;;
69358;SDS011;56520;49.066;8.660;2024-01-27T02:43:37;2.42;;;1.00;;
69358;SDS011;56520;49.066;8.660;2024-01-27T02:46:03;1.20;;;0.75;;
69358;SDS011;56520;49.066;8.660;2024-01-27T02:48:31;3.00;;;1.00;;
69358;SDS011;56520;49.066;8.660;2024-01-27T02:50:57;3.78;;;1.73;;
69358;SDS011;56520;49.066;8.660;2024-01-27T02:53:22;2.30;;;1.02;;
69358;SDS011;56520;49.066;8.660;2024-01-27T02:55:47;2.60;;;1.05;;
69358;SDS011;56520;49.066;8.660;2024-01-27T02:58:13;3.17;;;1.23;;
69358;SDS011;56520;49.066;8.660;2024-01-27T03:00:38;2.90;;;0.90;;
69358;SDS011;56520;49.066;8.660;2024-01-27T03:03:04;5.35;;;1.10;;
69358;SDS011;56520;49.066;8.660;2024-01-27T03:05:29;2.55;;;1.10;;
69358;SDS011;56520;49.066;8.660;2024-01-27T03:07:55;2.05;;;0.77;;
69358;SDS011;56520;49.066;8.660;2024-01-27T03:10:21;4.55;;;1.60;;
69358;SDS011;56520;49.066;8.660;2024-01-27T03:12:46;2.78;;;1.15;;
69358;SDS011;56520;49.066;8.660;2024-01-27T03:15:11;2.30;;;1.00;;
69358;SDS011;56520;49.066;8.660;2024-01-27T03:17:37;2.95;;;1.30;;
69358;SDS011;56520;49.066;8.660;2024-01-27T03:20:02;2.63;;;0.98;;
69358;SDS011;56520;49.066;8.660;2024-01-27T03:22:28;2.40;;;0.93;;
69358;SDS011;56520;49.066;8.660;2024-01-27T03:24:53;2.00;;;0.80;;
69358;SDS011;56520;49.066;8.660;2024-01-27T03:27:20;2.65;;;1.17;;
69358;SDS011;56520;49.066;8.660;2024-01-27T03:29:45;4.13;;;1.45;;
69358;SDS011;56520;49.066;8.660;2024-01-27T03:32:10;1.85;;;1.00;;
69358;SDS011;56520;49.066;8.660;2024-01-27T03:34:37;2.60;;;1.00;;
69358;SDS011;56520;49.066;8.660;2024-01-27T03:37:08;1.23;;;0.68;;
69358;SDS011;56520;49.066;8.660;2024-01-27T03:39:33;2.45;;;0.98;;
69358;SDS011;56520;49.066;8.660;2024-01-27T03:41:59;4.30;;;1.48;;
69358;SDS011;56520;49.066;8.660;2024-01-27T03:44:24;2.08;;;0.95;;
69358;SDS011;56520;49.066;8.660;2024-01-27T03:46:50;2.50;;;0.82;;
69358;SDS011;56520;49.066;8.660;2024-01-27T03:49:16;4.50;;;1.38;;
69358;SDS011;56520;49.066;8.660;2024-01-27T03:51:41;3.38;;;1.13;;
69358;SDS011;56520;49.066;8.660;2024-01-27T03:54:07;2.22;;;0.95;;
69358;SDS011;56520;49.066;8.660;2024-01-27T03:56:32;1.85;;;0.82;;
69358;SDS011;56520;49.066;8.660;2024-01-27T03:58:57;1.95;;;0.80;;
69358;SDS011;56520;49.066;8.660;2024-01-27T04:01:23;5.53;;;1.67;;
69358;SDS011;56520;49.066;8.660;2024-01-27T04:03:48;2.70;;;1.17;;
69358;SDS011;56520;49.066;8.660;2024-01-27T04:06:14;2.53;;;1.15;;
69358;SDS011;56520;49.066;8.660;2024-01-27T04:08:39;3.45;;;1.15;;
69358;SDS011;56520;49.066;8.660;2024-01-27T04:11:08;3.05;;;1.38;;
69358;SDS011;56520;49.066;8.660;2024-01-27T04:13:35;2.83;;;1.13;;
69358;SDS011;56520;49.066;8.660;2024-01-27T04:16:01;1.85;;;0.90;;
69358;SDS011;56520;49.066;8.660;2024-01-27T04:18:26;1.83;;;0.77;;
69358;SDS011;56520;49.066;8.660;2024-01-27T04:20:52;2.92;;;1.20;;
69358;SDS011;56520;49.066;8.660;2024-01-27T04:23:17;1.48;;;0.75;;
69358;SDS011;56520;49.066;8.660;2024-01-27T04:25:43;2.60;;;1.05;;
69358;SDS011;56520;49.066;8.660;2024-01-27T04:30:36;2.20;;;0.95;;
69358;SDS011;56520;49.066;8.660;2024-01-27T04:33:02;1.35;;;0.68;;
69358;SDS011;56520;49.066;8.660;2024-01-27T04:35:27;2.67;;;1.00;;
69358;SDS011;56520;49.066;8.660;2024-01-27T04:37:53;1.35;;;0.73;;
69358;SDS011;56520;49.066;8.660;2024-01-27T04:40:18;2.80;;;1.27;;
69358;SDS011;56520;49.066;8.660;2024-01-27T04:42:44;3.85;;;1.15;;
69358;SDS011;56520;49.066;8.660;2024-01-27T04:45:09;1.77;;;0.90;;
69358;SDS011;56520;49.066;8.660;2024-01-27T04:47:35;1.02;;;0.63;;
69358;SDS011;56520;49.066;8.660;2024-01-27T04:50:00;2.22;;;1.23;;
69358;SDS011;56520;49.066;8.660;2024-01-27T04:52:26;3.35;;;1.38;;
69358;SDS011;56520;49.066;8.660;2024-01-27T04:54:51;2.88;;;1.27;;
69358;SDS011;56520;49.066;8.660;2024-01-27T04:57:16;1.70;;;0.80;;
69358;SDS011;56520;49.066;8.660;2024-01-27T04:59:42;2.28;;;0.82;;
69358;SDS011;56520;49.066;8.660;2024-01-27T05:02:07;2.35;;;0.93;;
69358;SDS011;56520;49.066;8.660;2024-01-27T05:04:32;2.28;;;1.10;;
69358;SDS011;56520;49.066;8.660;2024-01-27T05:06:58;2.22;;;1.10;;
69358;SDS011;56520;49.066;8.660;2024-01-27T05:09:23;3.95;;;1.42;;
69358;SDS011;56520;49.066;8.660;2024-01-27T05:11:49;3.08;;;1.10;;
69358;SDS011;56520;49.066;8.660;2024-01-27T05:14:17;5.25;;;1.58;;
69358;SDS011;56520;49.066;8.660;2024-01-27T05:16:43;2.92;;;1.10;;
69358;SDS011;56520;49.066;8.660;2024-01-27T05:19:08;3.55;;;1.60;;
69358;SDS011;56520;49.066;8.660;2024-01-27T05:21:34;3.17;;;0.95;;
69358;SDS011;56520;49.066;8.660;2024-01-27T05:24:00;3.03;;;1.27;;
69358;SDS011;56520;49.066;8.660;2024-01-27T05:26:25;2.38;;;1.13;;
69358;SDS011;56520;49.066;8.660;2024-01-27T05:28:51;1.98;;;1.00;;
69358;SDS011;56520;49.066;8.660;2024-01-27T05:31:16;1.15;;;0.65;;
69358;SDS011;56520;49.066;8.660;2024-01-27T05:33:42;4.03;;;1.17;;
69358;SDS011;56520;49.066;8.660;2024-01-27T05:36:07;4.20;;;1.52;;
69358;SDS011;56520;49.066;8.660;2024-01-27T05:38:33;4.30;;;1.15;;
69358;SDS011;56520;49.066;8.660;2024-01-27T05:41:01;4.13;;;1.50;;
69358;SDS011;56520;49.066;8.660;2024-01-27T05:43:27;3.28;;;1.38;;
69358;SDS011;56520;49.066;8.660;2024-01-27T05:45:53;3.92;;;1.50;;
69358;SDS011;56520;49.066;8.660;2024-01-27T05:48:18;4.32;;;1.98;;
69358;SDS011;56520;49.066;8.660;2024-01-27T05:50:44;5.75;;;2.10;;
69358;SDS011;56520;49.066;8.660;2024-01-27T05:53:19;4.32;;;1.55;;
69358;SDS011;56520;49.066;8.660;2024-01-27T05:55:46;3.72;;;1.38;;
69358;SDS011;56520;49.066;8.660;2024-01-27T05:58:11;3.58;;;1.40;;
69358;SDS011;56520;49.066;8.660;2024-01-27T06:00:37;2.67;;;0.88;;
69358;SDS011;56520;49.066;8.660;2024-01-27T06:03:02;2.20;;;1.02;;
69358;SDS011;56520;49.066;8.660;2024-01-27T06:05:28;2.47;;;1.25;;
69358;SDS011;56520;49.066;8.660;2024-01-27T06:07:53;1.63;;;0.80;;
69358;SDS011;56520;49.066;8.660;2024-01-27T06:10:18;3.25;;;1.10;;
69358;SDS011;56520;49.066;8.660;2024-01-27T06:12:44;1.88;;;0.80;;
69358;SDS011;56520;49.066;8.660;2024-01-27T06:15:09;6.95;;;1.10;;
69358;SDS011;56520;49.066;8.660;2024-01-27T06:17:35;3.00;;;1.40;;
69358;SDS011;56520;49.066;8.660;2024-01-27T06:20:01;6.25;;;1.45;;
69358;SDS011;56520;49.066;8.660;2024-01-27T06:22:26;3.05;;;1.25;;
69358;SDS011;56520;49.066;8.660;2024-01-27T06:24:52;4.22;;;1.67;;
69358;SDS011;56520;49.066;8.660;2024-01-27T06:27:17;2.25;;;0.88;;
69358;SDS011;56520;49.066;8.660;2024-01-27T06:29:43;3.15;;;1.33;;
69358;SDS011;56520;49.066;8.660;2024-01-27T06:32:09;1.95;;;1.00;;
69358;SDS011;56520;49.066;8.660;2024-01-27T06:34:34;2.53;;;1.20;;
69358;SDS011;56520;49.066;8.660;2024-01-27T06:36:59;3.55;;;1.30;;
69358;SDS011;56520;49.066;8.660;2024-01-27T06:39:25;3.10;;;1.20;;
69358;SDS011;56520;49.066;8.660;2024-01-27T06:41:51;3.08;;;1.15;;
69358;SDS011;56520;49.066;8.660;2024-01-27T06:44:16;3.17;;;1.02;;
69358;SDS011;56520;49.066;8.660;2024-01-27T06:46:41;2.47;;;1.13;;
69358;SDS011;56520;49.066;8.660;2024-01-27T06:49:08;5.57;;;1.33;;
69358;SDS011;56520;49.066;8.660;2024-01-27T06:51:33;3.22;;;1.23;;
69358;SDS011;56520;49.066;8.660;2024-01-27T06:53:58;3.38;;;1.38;;
69358;SDS011;56520;49.066;8.660;2024-01-27T06:56:24;1.80;;;0.90;;
69358;SDS011;56520;49.066;8.660;2024-01-27T06:58:49;3.92;;;1.48;;
69358;SDS011;56520;49.066;8.660;2024-01-27T07:01:14;3.78;;;1.63;;
69358;SDS011;56520;49.066;8.660;2024-01-27T07:03:40;2.45;;;1.38;;
69358;SDS011;56520;49.066;8.660;2024-01-27T07:06:05;2.55;;;1.10;;
69358;SDS011;56520;49.066;8.660;2024-01-27T07:08:31;4.45;;;1.63;;
69358;SDS011;56520;49.066;8.660;2024-01-27T07:10:57;3.15;;;1.45;;
69358;SDS011;56520;49.066;8.660;2024-01-27T07:13:23;2.50;;;1.17;;
69358;SDS011;56520;49.066;8.660;2024-01-27T07:15:48;2.20;;;0.77;;
69358;SDS011;56520;49.066;8.660;2024-01-27T07:18:14;1.95;;;1.10;;
69358;SDS011;56520;49.066;8.660;2024-01-27T07:20:40;3.35;;;1.38;;
69358;SDS011;56520;49.066;8.660;2024-01-27T07:23:05;3.28;;;1.17;;
69358;SDS011;56520;49.066;8.660;2024-01-27T07:25:31;3.50;;;1.33;;
69358;SDS011;56520;49.066;8.660;2024-01-27T07:27:56;12.98;;;1.75;;
69358;SDS011;56520;49.066;8.660;2024-01-27T07:30:22;4.50;;;1.38;;
69358;SDS011;56520;49.066;8.660;2024-01-27T07:32:47;2.83;;;1.42;;
69358;SDS011;56520;49.066;8.660;2024-01-27T07:35:13;2.92;;;1.05;;
69358;SDS011;56520;49.066;8.660;2024-01-27T07:37:38;3.60;;;1.35;;
69358;SDS011;56520;49.066;8.660;2024-01-27T07:40:04;2.55;;;0.90;;
69358;SDS011;56520;49.066;8.660;2024-01-27T07:42:30;2.38;;;1.02;;
69358;SDS011;56520;49.066;8.660;2024-01-27T07:44:56;2.00;;;0.82;;
69358;SDS011;56520;49.066;8.660;2024-01-27T07:47:21;5.28;;;1.77;;
69358;SDS011;56520;49.066;8.660;2024-01-27T07:49:46;2.65;;;1.20;;
69358;SDS011;56520;49.066;8.660;2024-01-27T07:52:13;3.58;;;1.20;;
69358;SDS011;56520;49.066;8.660;2024-01-27T07:54:39;2.75;;;1.10;;
69358;SDS011;56520;49.066;8.660;2024-01-27T07:57:05;4.35;;;1.30;;
69358;SDS011;56520;49.066;8.660;2024-01-27T07:59:31;1.42;;;0.73;;
69358;SDS011;56520;49.066;8.660;2024-01-27T08:01:56;2.97;;;1.33;;
69358;SDS011;56520;49.066;8.660;2024-01-27T08:04:21;4.32;;;1.45;;
69358;SDS011;56520;49.066;8.660;2024-01-27T08:06:48;3.03;;;1.02;;
69358;SDS011;56520;49.066;8.660;2024-01-27T08:09:14;5.38;;;2.05;;
69358;SDS011;56520;49.066;8.660;2024-01-27T08:14:06;3.90;;;1.20;;
69358;SDS011;56520;49.066;8.660;2024-01-27T08:16:31;3.67;;;1.63;;
69358;SDS011;56520;49.066;8.660;2024-01-27T08:18:56;8.85;;;1.90;;
69358;SDS011;56520;49.066;8.660;2024-01-27T08:21:22;3.88;;;1.52;;
69358;SDS011;56520;49.066;8.660;2024-01-27T08:23:47;3.53;;;1.70;;
69358;SDS011;56520;49.066;8.660;2024-01-27T08:26:13;5.30;;;1.85;;
69358;SDS011;56520;49.066;8.660;2024-01-27T08:28:39;7.10;;;2.45;;
69358;SDS011;56520;49.066;8.660;2024-01-27T08:33:30;5.22;;;1.88;;
69358;SDS011;56520;49.066;8.660;2024-01-27T08:38:21;2.10;;;1.10;;
69358;SDS011;56520;49.066;8.660;2024-01-27T08:40:46;4.55;;;1.92;;
69358;SDS011;56520;49.066;8.660;2024-01-27T08:43:11;5.88;;;1.42;;
69358;SDS011;56520;49.066;8.660;2024-01-27T08:45:37;4.75;;;1.63;;
69358;SDS011;56520;49.066;8.660;2024-01-27T08:48:06;4.03;;;1.42;;
69358;SDS011;56520;49.066;8.660;2024-01-27T08:50:31;4.07;;;1.48;;
69358;SDS011;56520;49.066;8.660;2024-01-27T08:52:57;5.45;;;1.98;;
69358;SDS011;56520;49.066;8.660;2024-01-27T08:55:23;7.30;;;2.10;;
69358;SDS011;56520;49.066;8.660;2024-01-27T08:57:49;7.25;;;2.60;;
69358;SDS011;56520;49.066;8.660;2024-01-27T09:00:15;7.82;;;2.45;;
69358;SDS011;56520;49.066;8.660;2024-01-27T09:02:42;7.55;;;3.08;;
69358;SDS011;56520;49.066;8.660;2024-01-27T09:05:07;7.30;;;3.17;;
69358;SDS011;56520;49.066;8.660;2024-01-27T09:07:33;7.78;;;2.72;;
69358;SDS011;56520;49.066;8.660;2024-01-27T09:09:59;8.73;;;3.00;;
69358;SDS011;56520;49.066;8.660;2024-01-27T09:12:25;8.65;;;3.58;;
69358;SDS011;56520;49.066;8.660;2024-01-27T09:14:50;7.45;;;3.08;;
69358;SDS011;56520;49.066;8.660;2024-01-27T09:17:16;8.05;;;2.70;;
69358;SDS011;56520;49.066;8.660;2024-01-27T09:19:42;7.88;;;3.35;;
69358;SDS011;56520;49.066;8.660;2024-01-27T09:22:07;7.88;;;3.00;;
69358;SDS011;56520;49.066;8.660;2024-01-27T09:24:33;7.63;;;3.17;;
69358;SDS011;56520;49.066;8.660;2024-01-27T09:26:58;8.45;;;3.67;;
69358;SDS011;56520;49.066;8.660;2024-01-27T09:29:23;7.63;;;2.70;;
69358;SDS011;56520;49.066;8.660;2024-01-27T09:31:49;7.65;;;2.78;;
69358;SDS011;56520;49.066;8.660;2024-01-27T09:34:14;7.25;;;2.63;;
69358;SDS011;56520;49.066;8.660;2024-01-27T09:36:40;6.57;;;2.95;;
69358;SDS011;56520;49.066;8.660;2024-01-27T09:39:05;7.65;;;2.78;;
69358;SDS011;56520;49.066;8.660;2024-01-27T09:41:31;10.77;;;2.65;;
69358;SDS011;56520;49.066;8.660;2024-01-27T09:43:58;8.88;;;3.40;;
69358;SDS011;56520;49.066;8.660;2024-01-27T09:46:29;8.18;;;3.40;;
69358;SDS011;56520;49.066;8.660;2024-01-27T09:48:56;9.35;;;2.80;;
69358;SDS011;56520;49.066;8.660;2024-01-27T09:51:21;7.10;;;2.55;;
69358;SDS011;56520;49.066;8.660;2024-01-27T09:53:47;7.10;;;2.47;;
69358;SDS011;56520;49.066;8.660;2024-01-27T09:56:15;6.65;;;2.17;;
69358;SDS011;56520;49.066;8.660;2024-01-27T09:58:43;6.22;;;2.00;;
69358;SDS011;56520;49.066;8.660;2024-01-27T10:01:12;6.25;;;2.20;;
69358;SDS011;56520;49.066;8.660;2024-01-27T10:03:41;7.03;;;2.60;;
69358;SDS011;56520;49.066;8.660;2024-01-27T10:06:08;5.75;;;2.17;;
69358;SDS011;56520;49.066;8.660;2024-01-27T10:08:34;7.22;;;1.98;;
69358;SDS011;56520;49.066;8.660;2024-01-27T10:11:00;5.60;;;1.88;;
69358;SDS011;56520;49.066;8.660;2024-01-27T10:13:32;6.55;;;2.33;;
69358;SDS011;56520;49.066;8.660;2024-01-27T10:16:06;5.05;;;1.50;;
69358;SDS011;56520;49.066;8.660;2024-01-27T10:18:33;5.28;;;1.90;;
69358;SDS011;56520;49.066;8.660;2024-01-27T10:21:00;4.55;;;1.73;;
69358;SDS011;56520;49.066;8.660;2024-01-27T10:23:38;7.97;;;2.47;;
69358;SDS011;56520;49.066;8.660;2024-01-27T10:26:04;6.78;;;2.28;;
69358;SDS011;56520;49.066;8.660;2024-01-27T10:28:29;4.95;;;1.85;;
69358;SDS011;56520;49.066;8.660;2024-01-27T10:30:55;5.25;;;1.75;;
69358;SDS011;56520;49.066;8.660;2024-01-27T10:33:33;8.05;;;2.22;;
69358;SDS011;56520;49.066;8.660;2024-01-27T10:35:58;7.72;;;2.50;;
69358;SDS011;56520;49.066;8.660;2024-01-27T10:38:32;6.93;;;2.25;;
69358;SDS011;56520;49.066;8.660;2024-01-27T10:40:59;8.15;;;2.78;;
69358;SDS011;56520;49.066;8.660;2024-01-27T10:43:24;8.23;;;2.70;;
69358;SDS011;56520;49.066;8.660;2024-01-27T10:45:50;7.30;;;2.65;;
69358;SDS011;56520;49.066;8.660;2024-01-27T10:48:16;9.45;;;3.58;;
69358;SDS011;56520;49.066;8.660;2024-01-27T10:50:42;7.85;;;2.05;;
69358;SDS011;56520;49.066;8.660;2024-01-27T10:53:15;6.68;;;1.88;;
69358;SDS011;56520;49.066;8.660;2024-01-27T10:55:47;7.18;;;1.67;;
69358;SDS011;56520;49.066;8.660;2024-01-27T10:58:15;6.53;;;1.40;;
69358;SDS011;56520;49.066;8.660;2024-01-27T11:00:41;6.47;;;1.60;;
69358;SDS011;56520;49.066;8.660;2024-01-27T11:03:10;4.35;;;1.42;;
69358;SDS011;56520;49.066;8.660;2024-01-27T11:05:36;7.35;;;1.63;;
69358;SDS011;56520;49.066;8.660;2024-01-27T11:08:04;5.95;;;1.55;;
69358;SDS011;56520;49.066;8.660;2024-01-27T11:10:31;5.35;;;1.77;;
69358;SDS011;56520;49.066;8.660;2024-01-27T11:13:01;8.50;;;1.38;;
69358;SDS011;56520;49.066;8.660;2024-01-27T11:15:28;7.57;;;1.60;;
69358;SDS011;56520;49.066;8.660;2024-01-27T11:17:56;4.45;;;1.15;;
69358;SDS011;56520;49.066;8.660;2024-01-27T11:20:24;5.25;;;1.42;;
69358;SDS011;56520;49.066;8.660;2024-01-27T11:22:50;5.75;;;1.63;;
69358;SDS011;56520;49.066;8.660;2024-01-27T11:25:17;5.82;;;1.45;;
69358;SDS011;56520;49.066;8.660;2024-01-27T11:27:44;3.90;;;1.20;;
69358;SDS011;56520;49.066;8.660;2024-01-27T11:30:31;5.28;;;1.45;;
69358;SDS011;56520;49.066;8.660;2024-01-27T11:33:01;4.15;;;1.58;;
69358;SDS011;56520;49.066;8.660;2024-01-27T11:35:28;5.80;;;1.48;;
69358;SDS011;56520;49.066;8.660;2024-01-27T11:37:54;5.82;;;1.50;;
69358;SDS011;56520;49.066;8.660;2024-01-27T11:40:19;6.18;;;1.20;;
69358;SDS011;56520;49.066;8.660;2024-01-27T11:42:54;8.38;;;2.25;;
69358;SDS011;56520;49.066;8.660;2024-01-27T11:45:23;3.95;;;1.35;;
69358;SDS011;56520;49.066;8.660;2024-01-27T11:47:49;6.47;;;1.95;;
69358;SDS011;56520;49.066;8.660;2024-01-27T11:50:17;4.22;;;1.60;;
69358;SDS011;56520;49.066;8.660;2024-01-27T11:52:43;4.50;;;1.60;;
69358;SDS011;56520;49.066;8.660;2024-01-27T11:55:09;3.88;;;1.17;;
69358;SDS011;56520;49.066;8.660;2024-01-27T11:57:34;5.13;;;1.42;;
69358;SDS011;56520;49.066;8.660;2024-01-27T11:59:59;6.55;;;1.70;;
69358;SDS011;56520;49.066;8.660;2024-01-27T12:02:25;4.03;;;1.50;;
69358;SDS011;56520;49.066;8.660;2024-01-27T12:04:50;6.45;;;1.65;;
69358;SDS011;56520;49.066;8.660;2024-01-27T12:07:16;4.82;;;1.45;;
69358;SDS011;56520;49.066;8.660;2024-01-27T12:09:45;5.00;;;1.40;;
69358;SDS011;56520;49.066;8.660;2024-01-27T12:12:11;10.60;;;1.60;;
69358;SDS011;56520;49.066;8.660;2024-01-27T12:14:39;6.13;;;1.48;;
69358;SDS011;56520;49.066;8.660;2024-01-27T12:17:14;4.90;;;1.30;;
69358;SDS011;56520;49.066;8.660;2024-01-27T12:19:45;6.15;;;1.73;;
69358;SDS011;56520;49.066;8.660;2024-01-27T12:25:11;4.65;;;1.65;;
69358;SDS011;56520;49.066;8.660;2024-01-27T12:27:41;4.72;;;1.30;;
69358;SDS011;56520;49.066;8.660;2024-01-27T12:30:07;7.72;;;2.20;;
69358;SDS011;56520;49.066;8.660;2024-01-27T12:32:33;7.30;;;1.70;;
69358;SDS011;56520;49.066;8.660;2024-01-27T12:34:59;6.07;;;1.65;;
69358;SDS011;56520;49.066;8.660;2024-01-27T12:37:30;5.65;;;1.73;;
69358;SDS011;56520;49.066;8.660;2024-01-27T12:39:55;5.57;;;1.65;;
69358;SDS011;56520;49.066;8.660;2024-01-27T12:42:21;8.50;;;1.67;;
69358;SDS011;56520;49.066;8.660;2024-01-27T12:44:46;6.15;;;2.13;;
69358;SDS011;56520;49.066;8.660;2024-01-27T12:47:12;5.63;;;1.30;;
69358;SDS011;56520;49.066;8.660;2024-01-27T12:49:39;3.75;;;1.20;;
69358;SDS011;56520;49.066;8.660;2024-01-27T12:52:05;3.65;;;1.30;;
69358;SDS011;56520;49.066;8.660;2024-01-27T12:54:31;5.10;;;1.88;;
69358;SDS011;56520;49.066;8.660;2024-01-27T12:56:57;7.22;;;1.30;;
69358;SDS011;56520;49.066;8.660;2024-01-27T12:59:22;3.03;;;1.20;;
69358;SDS011;56520;49.066;8.660;2024-01-27T13:01:48;3.17;;;1.00;;
69358;SDS011;56520;49.066;8.660;2024-01-27T13:04:14;8.10;;;1.40;;
69358;SDS011;56520;49.066;8.660;2024-01-27T13:06:39;4.25;;;1.50;;
69358;SDS011;56520;49.066;8.660;2024-01-27T13:09:05;5.82;;;1.20;;
69358;SDS011;56520;49.066;8.660;2024-01-27T13:11:31;5.97;;;1.30;;
69358;SDS011;56520;49.066;8.660;2024-01-27T13:13:56;5.97;;;1.40;;
69358;SDS011;56520;49.066;8.660;2024-01-27T13:16:21;3.88;;;1.15;;
69358;SDS011;56520;49.066;8.660;2024-01-27T13:18:47;5.63;;;1.58;;
69358;SDS011;56520;49.066;8.660;2024-01-27T13:21:12;6.53;;;1.30;;
69358;SDS011;56520;49.066;8.660;2024-01-27T13:23:38;4.97;;;1.23;;
69358;SDS011;56520;49.066;8.660;2024-01-27T13:26:03;5.47;;;1.20;;
69358;SDS011;56520;49.066;8.660;2024-01-27T13:28:29;8.18;;;1.10;;
69358;SDS011;56520;49.066;8.660;2024-01-27T13:30:54;6.38;;;1.33;;
69358;SDS011;56520;49.066;8.660;2024-01-27T13:33:20;9.82;;;1.13;;
69358;SDS011;56520;49.066;8.660;2024-01-27T13:35:46;3.20;;;0.98;;
69358;SDS011;56520;49.066;8.660;2024-01-27T13:38:14;4.90;;;1.10;;
69358;SDS011;56520;49.066;8.660;2024-01-27T13:40:40;3.03;;;1.00;;
69358;SDS011;56520;49.066;8.660;2024-01-27T13:43:07;8.43;;;1.25;;
69358;SDS011;56520;49.066;8.660;2024-01-27T13:45:33;2.47;;;1.00;;
69358;SDS011;56520;49.066;8.660;2024-01-27T13:47:59;5.60;;;1.42;;
69358;SDS011;56520;49.066;8.660;2024-01-27T13:50:25;6.35;;;1.35;;
69358;SDS011;56520;49.066;8.660;2024-01-27T13:52:51;3.15;;;1.00;;
69358;SDS011;56520;49.066;8.660;2024-01-27T13:55:17;5.45;;;1.20;;
69358;SDS011;56520;49.066;8.660;2024-01-27T13:57:43;5.63;;;1.40;;
69358;SDS011;56520;49.066;8.660;2024-01-27T14:00:09;7.88;;;1.42;;
69358;SDS011;56520;49.066;8.660;2024-01-27T14:02:35;6.10;;;1.55;;
69358;SDS011;56520;49.066;8.660;2024-01-27T14:05:01;4.45;;;1.33;;
69358;SDS011;56520;49.066;8.660;2024-01-27T14:07:26;8.70;;;1.60;;
69358;SDS011;56520;49.066;8.660;2024-01-27T14:09:52;4.28;;;1.30;;
69358;SDS011;56520;49.066;8.660;2024-01-27T14:12:17;5.20;;;1.25;;
69358;SDS011;56520;49.066;8.660;2024-01-27T14:14:43;3.50;;;1.25;;
69358;SDS011;56520;49.066;8.660;2024-01-27T14:17:09;7.43;;;1.77;;
69358;SDS011;56520;49.066;8.660;2024-01-27T14:19:34;5.45;;;1.20;;
69358;SDS011;56520;49.066;8.660;2024-01-27T14:22:00;3.30;;;1.20;;
69358;SDS011;56520;49.066;8.660;2024-01-27T14:24:25;4.60;;;1.40;;
69358;SDS011;56520;49.066;8.660;2024-01-27T14:26:51;3.55;;;1.20;;
69358;SDS011;56520;49.066;8.660;2024-01-27T14:29:17;3.95;;;1.17;;
69358;SDS011;56520;49.066;8.660;2024-01-27T14:31:43;5.97;;;1.17;;
69358;SDS011;56520;49.066;8.660;2024-01-27T14:34:08;3.90;;;1.10;;
69358;SDS011;56520;49.066;8.660;2024-01-27T14:36:37;6.35;;;1.27;;
69358;SDS011;56520;49.066;8.660;2024-01-27T14:39:03;5.32;;;1.33;;
69358;SDS011;56520;49.066;8.660;2024-01-27T14:41:29;4.88;;;1.20;;
69358;SDS011;56520;49.066;8.660;2024-01-27T14:43:55;10.60;;;2.00;;
69358;SDS011;56520;49.066;8.660;2024-01-27T14:46:21;6.15;;;1.40;;
69358;SDS011;56520;49.066;8.660;2024-01-27T14:48:48;8.48;;;1.30;;
69358;SDS011;56520;49.066;8.660;2024-01-27T14:51:13;9.15;;;1.63;;
69358;SDS011;56520;49.066;8.660;2024-01-27T14:53:39;3.33;;;1.20;;
69358;SDS011;56520;49.066;8.660;2024-01-27T14:56:04;4.35;;;1.42;;
69358;SDS011;56520;49.066;8.660;2024-01-27T14:58:30;5.07;;;1.40;;
69358;SDS011;56520;49.066;8.660;2024-01-27T15:00:55;5.18;;;1.35;;
69358;SDS011;56520;49.066;8.660;2024-01-27T15:03:21;5.40;;;1.60;;
69358;SDS011;56520;49.066;8.660;2024-01-27T15:05:48;7.13;;;1.50;;